Time;durP1;ratioP1;P1;durP2;ratioP2;P2;SDS_P1;SDS_P2;PMS_P1;PMS_P2;Temp;Humidity;BMP_temperature;BMP_pressure;BME280_temperature;BME280_humidity;BME280_pressure;Samples;Min_cycle;Max_cycle;Signal;HPM_P1;HPM_P2
2021/05/25 00:00:39;;;;;;;5.80;5.53;;;10.10;99.90;;;;;;4999153;28;20200;-75
2021/05/25 00:03:08;;;;;;;5.90;5.40;;;10.10;99.90;;;;;;4958895;28;20049;-75
2021/05/25 00:05:36;;;;;;;5.53;5.22;;;10.10;99.90;;;;;;4973875;28;20157;-75
2021/05/25 00:08:03;;;;;;;5.35;5.15;;;10.00;99.90;;;;;;4958455;28;20038;-76
2021/05/25 00:10:32;;;;;;;5.40;5.10;;;9.90;99.90;;;;;;4974399;28;20062;-76
2021/05/25 00:12:59;;;;;;;5.75;5.43;;;9.80;99.90;;;;;;4957918;28;20045;-76
2021/05/25 00:15:28;;;;;;;5.65;5.35;;;9.80;99.90;;;;;;4968939;28;20049;-76
2021/05/25 00:17:55;;;;;;;5.53;5.30;;;9.70;99.90;;;;;;5002220;28;20122;-76
2021/05/25 00:20:23;;;;;;;5.13;4.82;;;9.80;99.90;;;;;;4992742;28;20396;-76
2021/05/25 00:22:51;;;;;;;5.57;5.28;;;9.80;99.90;;;;;;4967307;28;20280;-76
2021/05/25 00:25:19;;;;;;;5.20;5.00;;;9.80;99.90;;;;;;4965059;28;20065;-76
2021/05/25 00:27:47;;;;;;;5.43;5.20;;;9.80;99.90;;;;;;4974186;28;20659;-76
2021/05/25 00:30:18;;;;;;;6.07;5.63;;;9.80;99.90;;;;;;4987201;28;20053;-78
2021/05/25 00:32:46;;;;;;;6.25;5.78;;;9.80;99.90;;;;;;4993121;28;20049;-76
2021/05/25 00:35:13;;;;;;;5.97;5.72;;;9.70;99.90;;;;;;4988800;28;20050;-76
2021/05/25 00:37:41;;;;;;;5.40;5.20;;;9.60;99.90;;;;;;5006556;28;20064;-76
2021/05/25 00:40:10;;;;;;;6.13;5.82;;;9.50;99.90;;;;;;4958678;28;20568;-76
2021/05/25 00:42:37;;;;;;;6.13;5.72;;;9.40;99.90;;;;;;4973563;28;20053;-76
2021/05/25 00:45:07;;;;;;;5.95;5.65;;;9.40;99.90;;;;;;4986919;28;20700;-76
2021/05/25 00:47:36;;;;;;;6.60;6.30;;;9.30;99.90;;;;;;4995712;28;20415;-77
2021/05/25 00:50:13;;;;;;;5.57;5.35;;;9.30;99.90;;;;;;4954250;28;20061;-76
2021/05/25 00:52:48;;;;;;;5.70;5.40;;;9.20;99.90;;;;;;4953353;28;20042;-76
2021/05/25 00:55:17;;;;;;;5.67;5.37;;;9.30;99.90;;;;;;4970235;28;20058;-76
2021/05/25 00:57:46;;;;;;;6.55;6.15;;;9.30;99.90;;;;;;4981085;28;20076;-75
2021/05/25 01:00:14;;;;;;;6.10;5.80;;;9.30;99.90;;;;;;4972998;28;20491;-76
2021/05/25 01:02:41;;;;;;;6.25;5.85;;;9.30;99.90;;;;;;4975762;28;20108;-76
2021/05/25 01:05:12;;;;;;;6.30;5.90;;;9.30;99.90;;;;;;4973340;28;20045;-76
2021/05/25 01:07:40;;;;;;;6.00;5.72;;;9.30;99.90;;;;;;4975273;28;20038;-76
2021/05/25 01:10:09;;;;;;;7.65;6.00;;;9.30;99.90;;;;;;4957116;28;20458;-76
2021/05/25 01:12:45;;;;;;;6.95;6.43;;;9.40;99.90;;;;;;4972456;28;20053;-76
2021/05/25 01:15:13;;;;;;;6.13;5.78;;;9.40;99.90;;;;;;4980680;28;20065;-76
2021/05/25 01:17:40;;;;;;;6.45;6.13;;;9.40;99.90;;;;;;4996406;28;20042;-78
2021/05/25 01:20:07;;;;;;;5.90;5.60;;;9.40;99.90;;;;;;4972856;28;20053;-76
2021/05/25 01:22:34;;;;;;;6.28;5.88;;;9.40;99.90;;;;;;4988791;28;20521;-76
2021/05/25 01:25:08;;;;;;;6.05;5.75;;;9.40;99.90;;;;;;4957035;28;20073;-76
2021/05/25 01:27:35;;;;;;;6.30;5.90;;;9.40;99.90;;;;;;4958037;28;20394;-76
2021/05/25 01:30:04;;;;;;;6.40;6.00;;;9.40;99.90;;;;;;4973300;28;20068;-75
2021/05/25 01:32:31;;;;;;;5.80;5.50;;;9.40;99.90;;;;;;4972539;28;20064;-75
2021/05/25 01:34:59;;;;;;;5.95;5.65;;;9.40;99.90;;;;;;4994514;28;20487;-76
2021/05/25 01:37:26;;;;;;;5.80;5.50;;;9.30;99.90;;;;;;4976260;28;20110;-76
2021/05/25 01:39:55;;;;;;;5.45;5.05;;;9.30;99.90;;;;;;4979745;28;20136;-76
2021/05/25 01:42:31;;;;;;;5.57;5.10;;;9.20;99.90;;;;;;4979503;28;20046;-76
2021/05/25 01:44:59;;;;;;;5.75;4.70;;;9.20;99.90;;;;;;4976582;28;20062;-76
2021/05/25 01:47:26;;;;;;;4.93;4.60;;;9.20;99.90;;;;;;4986600;28;20475;-76
2021/05/25 01:49:53;;;;;;;8.15;4.93;;;9.10;99.90;;;;;;4973621;28;20053;-76
2021/05/25 01:52:20;;;;;;;5.13;4.82;;;9.00;99.90;;;;;;4972099;28;20515;-76
2021/05/25 01:54:47;;;;;;;5.35;5.05;;;9.00;99.90;;;;;;4988595;28;20049;-76
2021/05/25 01:57:14;;;;;;;5.00;4.70;;;9.00;99.90;;;;;;4972081;28;20050;-76
2021/05/25 01:59:41;;;;;;;5.88;5.30;;;9.00;99.90;;;;;;4956565;28;20057;-76
2021/05/25 02:02:08;;;;;;;5.32;4.88;;;8.90;99.90;;;;;;4988456;28;20054;-76
2021/05/25 02:04:34;;;;;;;5.53;5.22;;;8.90;99.90;;;;;;4988224;28;20038;-76
2021/05/25 02:07:01;;;;;;;5.50;5.20;;;8.90;99.90;;;;;;4972463;28;20630;-76
2021/05/25 02:09:35;;;;;;;5.20;5.00;;;8.90;99.90;;;;;;4971841;28;20491;-77
2021/05/25 02:12:01;;;;;;;5.28;4.97;;;8.80;99.90;;;;;;4982816;28;20050;-76
2021/05/25 02:14:28;;;;;;;5.70;5.40;;;8.80;99.90;;;;;;4992139;28;20045;-76
2021/05/25 02:16:55;;;;;;;5.97;5.68;;;8.80;99.90;;;;;;4980924;28;20052;-76
2021/05/25 02:19:22;;;;;;;5.80;5.40;;;8.90;99.90;;;;;;4975637;28;20591;-77
2021/05/25 02:21:48;;;;;;;4.93;4.72;;;8.80;99.90;;;;;;4987869;28;20689;-75
2021/05/25 02:24:15;;;;;;;5.70;4.63;;;8.70;99.90;;;;;;4964216;28;20046;-75
2021/05/25 02:26:42;;;;;;;5.28;4.82;;;8.70;99.90;;;;;;4971500;28;20069;-75
2021/05/25 02:29:09;;;;;;;4.93;4.72;;;8.50;99.90;;;;;;4972888;28;20042;-75
2021/05/25 02:31:36;;;;;;;5.03;4.63;;;8.50;99.90;;;;;;4971393;28;20133;-75
2021/05/25 02:34:02;;;;;;;4.68;4.47;;;8.40;99.90;;;;;;4956322;28;20057;-75
2021/05/25 02:36:29;;;;;;;4.35;4.13;;;8.30;99.90;;;;;;4971891;28;20392;-75
2021/05/25 02:39:01;;;;;;;4.78;4.40;;;8.30;99.90;;;;;;4972098;28;20054;-75
2021/05/25 02:41:28;;;;;;;4.47;4.07;;;8.20;99.90;;;;;;4990324;28;20046;-75
2021/05/25 02:43:54;;;;;;;4.00;3.75;;;8.20;99.90;;;;;;4972091;28;20065;-75
2021/05/25 02:46:21;;;;;;;4.03;3.28;;;8.10;99.90;;;;;;4994607;28;20046;-75
2021/05/25 02:48:48;;;;;;;3.88;3.58;;;8.10;99.90;;;;;;4975501;28;20042;-74
2021/05/25 02:51:15;;;;;;;3.63;3.42;;;8.10;99.90;;;;;;5009120;28;20400;-75
2021/05/25 02:53:42;;;;;;;3.35;3.15;;;8.00;99.90;;;;;;4978858;28;20053;-75
2021/05/25 02:56:08;;;;;;;3.80;3.30;;;8.00;99.90;;;;;;4958370;28;20600;-74
2021/05/25 02:58:35;;;;;;;3.70;3.33;;;8.00;99.90;;;;;;4987953;28;20049;-76
2021/05/25 03:01:02;;;;;;;3.63;3.33;;;8.00;99.90;;;;;;4987571;28;20081;-75
2021/05/25 03:03:30;;;;;;;3.40;3.00;;;8.00;99.90;;;;;;4987826;28;20054;-74
2021/05/25 03:05:56;;;;;;;4.35;3.22;;;7.90;99.90;;;;;;4972011;28;20577;-74
2021/05/25 03:08:23;;;;;;;3.50;3.22;;;7.90;99.90;;;;;;4971558;28;20041;-75
2021/05/25 03:10:50;;;;;;;3.40;3.20;;;7.90;99.90;;;;;;4971660;28;20114;-75
2021/05/25 03:13:17;;;;;;;3.65;3.40;;;7.90;99.90;;;;;;4972225;28;20044;-75
2021/05/25 03:15:46;;;;;;;3.28;3.08;;;7.90;99.90;;;;;;4996214;28;20049;-76
2021/05/25 03:18:13;;;;;;;3.53;3.30;;;7.90;99.90;;;;;;4975192;28;20096;-75
2021/05/25 03:20:43;;;;;;;3.20;3.00;;;7.90;99.90;;;;;;4973861;28;20054;-76
2021/05/25 03:23:10;;;;;;;3.60;3.30;;;7.90;99.90;;;;;;4969368;28;20038;-75
2021/05/25 03:25:37;;;;;;;3.65;3.30;;;7.90;99.90;;;;;;4998546;28;20046;-75
2021/05/25 03:28:05;;;;;;;3.25;3.10;;;7.90;99.90;;;;;;4979520;28;20044;-76
2021/05/25 03:30:32;;;;;;;3.50;3.17;;;7.90;99.90;;;;;;4998070;28;20048;-74
2021/05/25 03:32:59;;;;;;;4.15;3.55;;;8.00;99.90;;;;;;5007247;28;20593;-75
2021/05/25 03:35:27;;;;;;;7.20;3.65;;;8.00;99.90;;;;;;5005137;28;20484;-75
2021/05/25 03:37:54;;;;;;;3.97;3.53;;;8.00;99.90;;;;;;4992565;28;20053;-75
2021/05/25 03:40:21;;;;;;;3.85;3.50;;;8.00;99.90;;;;;;4969840;28;20569;-75
2021/05/25 03:42:50;;;;;;;3.45;3.25;;;8.10;99.90;;;;;;4986732;28;20132;-74
2021/05/25 03:45:18;;;;;;;4.63;4.10;;;8.10;99.90;;;;;;4975070;28;20061;-76
2021/05/25 03:47:45;;;;;;;3.60;3.40;;;8.10;99.90;;;;;;4988402;28;20054;-75
2021/05/25 03:50:13;;;;;;;3.85;3.60;;;8.10;99.90;;;;;;4957892;28;20053;-76
2021/05/25 03:52:42;;;;;;;4.28;3.30;;;8.00;99.90;;;;;;4974514;28;20068;-75
2021/05/25 03:55:37;;;;;;;4.05;3.70;;;8.00;99.90;;;;;;4988164;28;20148;-76
2021/05/25 04:00:50;;;;;;;4.25;3.97;;;8.00;99.90;;;;;;4976346;28;20053;-75
2021/05/25 04:03:17;;;;;;;3.88;3.40;;;8.00;99.90;;;;;;4994876;28;20420;-76
2021/05/25 04:05:45;;;;;;;7.68;4.30;;;7.90;99.90;;;;;;4957713;28;20048;-75
2021/05/25 04:08:14;;;;;;;4.57;4.30;;;7.90;99.90;;;;;;4989594;28;20412;-75
2021/05/25 04:10:41;;;;;;;4.97;4.47;;;7.90;99.90;;;;;;4989984;28;20499;-75
2021/05/25 04:13:08;;;;;;;4.90;4.60;;;7.90;99.90;;;;;;4974038;28;20049;-75
2021/05/25 04:15:37;;;;;;;5.15;4.75;;;7.90;99.90;;;;;;4980483;28;20049;-75
2021/05/25 04:18:04;;;;;;;5.00;4.70;;;7.90;99.90;;;;;;4977440;28;20044;-75
2021/05/25 04:20:31;;;;;;;9.95;5.20;;;7.90;99.90;;;;;;4957364;28;20061;-75
2021/05/25 04:22:58;;;;;;;5.60;5.22;;;7.90;99.90;;;;;;4988410;28;20053;-76
2021/05/25 04:25:25;;;;;;;6.25;5.65;;;8.00;99.90;;;;;;4977874;28;20042;-76
2021/05/25 04:27:52;;;;;;;5.85;5.13;;;8.00;99.90;;;;;;4957637;28;20052;-76
2021/05/25 04:30:20;;;;;;;5.65;5.22;;;8.00;99.90;;;;;;4988787;28;20080;-75
2021/05/25 04:32:47;;;;;;;5.50;5.20;;;8.10;99.90;;;;;;4974000;28;20423;-76
2021/05/25 04:35:14;;;;;;;5.65;5.25;;;8.10;99.90;;;;;;4982498;28;20092;-76
2021/05/25 04:37:41;;;;;;;6.72;5.57;;;8.20;99.90;;;;;;4971333;28;20137;-76
2021/05/25 04:40:08;;;;;;;6.40;5.90;;;8.30;99.90;;;;;;4995985;28;20049;-75
2021/05/25 04:42:36;;;;;;;5.97;5.68;;;8.40;99.90;;;;;;4989097;28;20041;-75
2021/05/25 04:45:06;;;;;;;6.35;5.95;;;8.50;99.90;;;;;;4986874;28;20431;-76
2021/05/25 04:47:33;;;;;;;6.35;6.03;;;8.50;99.90;;;;;;4985785;28;20074;-75
2021/05/25 04:50:00;;;;;;;5.72;5.40;;;8.70;99.90;;;;;;4986496;28;20521;-76
2021/05/25 04:52:27;;;;;;;6.35;5.80;;;8.90;99.90;;;;;;4953905;28;20054;-76
2021/05/25 04:54:55;;;;;;;7.13;6.60;;;9.00;99.90;;;;;;4985160;28;20100;-76
2021/05/25 04:57:23;;;;;;;6.47;6.18;;;9.10;99.90;;;;;;4989099;28;20057;-75
2021/05/25 04:59:50;;;;;;;7.18;6.65;;;9.10;99.90;;;;;;4972597;28;20058;-75
2021/05/25 05:02:17;;;;;;;6.78;6.47;;;9.00;99.90;;;;;;4977747;28;20070;-77
2021/05/25 05:04:44;;;;;;;6.45;6.13;;;8.90;99.90;;;;;;4986015;28;20049;-75
2021/05/25 05:07:11;;;;;;;6.05;5.85;;;9.00;99.90;;;;;;4970954;28;20302;-76
2021/05/25 05:09:38;;;;;;;7.18;6.60;;;8.90;99.90;;;;;;4973291;28;20046;-75
2021/05/25 05:12:05;;;;;;;6.93;6.55;;;8.90;99.90;;;;;;4978384;28;20462;-76
2021/05/25 05:14:37;;;;;;;6.45;6.15;;;8.80;99.90;;;;;;4977732;28;20077;-75
2021/05/25 05:17:04;;;;;;;6.22;5.72;;;8.70;99.90;;;;;;4982659;28;20526;-76
2021/05/25 05:19:31;;;;;;;6.38;6.18;;;8.70;99.90;;;;;;4972459;28;20045;-75
2021/05/25 05:21:58;;;;;;;6.53;6.22;;;8.70;99.90;;;;;;4991533;28;20045;-74
2021/05/25 05:24:25;;;;;;;6.55;6.05;;;8.60;99.90;;;;;;4988913;28;20057;-75
2021/05/25 05:26:51;;;;;;;6.15;5.78;;;8.50;99.90;;;;;;4956066;28;20046;-76
2021/05/25 05:29:18;;;;;;;5.97;5.72;;;8.50;99.90;;;;;;4988016;28;20593;-75
2021/05/25 05:31:45;;;;;;;5.60;5.40;;;8.50;99.90;;;;;;4971776;28;20664;-75
2021/05/25 05:34:12;;;;;;;5.45;5.22;;;8.40;99.90;;;;;;4988494;28;20050;-78
2021/05/25 05:36:39;;;;;;;4.72;4.53;;;8.30;99.90;;;;;;4972083;28;20580;-75
2021/05/25 05:39:06;;;;;;;5.13;4.30;;;8.30;99.90;;;;;;4971771;28;20735;-76
2021/05/25 05:41:33;;;;;;;3.70;3.50;;;8.20;99.90;;;;;;4987403;28;20057;-75
2021/05/25 05:44:00;;;;;;;4.50;4.20;;;8.10;99.90;;;;;;4988088;28;20050;-75
2021/05/25 05:46:27;;;;;;;4.20;3.95;;;8.10;99.90;;;;;;4996277;28;20042;-75
2021/05/25 05:48:55;;;;;;;8.05;6.35;;;8.10;99.90;;;;;;4969094;28;20049;-75
2021/05/25 05:51:22;;;;;;;5.47;4.85;;;8.10;99.90;;;;;;4959829;28;20117;-75
2021/05/25 05:53:50;;;;;;;4.60;4.28;;;8.10;99.90;;;;;;4955836;28;20066;-75
2021/05/25 05:56:18;;;;;;;5.07;4.82;;;8.40;99.90;;;;;;4958308;28;20690;-76
2021/05/25 05:58:46;;;;;;;5.75;5.40;;;8.70;99.90;;;;;;4972358;28;20060;-75
2021/05/25 06:01:13;;;;;;;5.65;5.45;;;9.10;99.90;;;;;;4971481;28;20054;-75
2021/05/25 06:03:40;;;;;;;6.90;6.43;;;9.40;99.90;;;;;;4972161;28;20060;-76
2021/05/25 06:06:07;;;;;;;6.80;6.50;;;9.60;99.90;;;;;;4972231;28;20052;-76
2021/05/25 06:08:34;;;;;;;6.93;6.63;;;9.70;99.90;;;;;;4969563;28;20038;-76
2021/05/25 06:11:01;;;;;;;7.35;7.00;;;9.70;99.90;;;;;;4967237;28;20042;-75
2021/05/25 06:13:28;;;;;;;7.30;7.00;;;9.70;99.90;;;;;;4953565;28;20060;-77
2021/05/25 06:16:01;;;;;;;6.78;6.55;;;9.60;99.90;;;;;;4980187;28;20725;-77
2021/05/25 06:18:33;;;;;;;6.43;6.13;;;9.50;99.90;;;;;;4974299;28;20141;-76
2021/05/25 06:21:01;;;;;;;6.60;6.30;;;9.70;99.90;;;;;;4955482;28;20044;-77
2021/05/25 06:23:29;;;;;;;7.18;6.78;;;9.80;99.90;;;;;;4970984;28;20495;-77
2021/05/25 06:25:59;;;;;;;7.68;7.38;;;9.90;99.90;;;;;;4976368;28;20407;-77
2021/05/25 06:28:27;;;;;;;7.00;6.70;;;9.80;99.90;;;;;;4984664;28;20487;-78
2021/05/25 06:30:54;;;;;;;6.75;6.53;;;9.50;99.90;;;;;;4977511;28;20069;-77
2021/05/25 06:33:21;;;;;;;6.80;6.50;;;9.50;99.90;;;;;;4973342;28;20073;-77
2021/05/25 06:35:49;;;;;;;6.07;5.78;;;9.40;99.90;;;;;;4973838;28;20103;-78
2021/05/25 06:38:17;;;;;;;5.70;5.50;;;9.50;99.90;;;;;;4957680;28;20069;-78
2021/05/25 06:40:45;;;;;;;6.18;5.70;;;9.50;99.90;;;;;;4973433;28;20105;-78
2021/05/25 06:43:12;;;;;;;6.18;5.88;;;9.50;99.90;;;;;;4990275;28;20508;-77
2021/05/25 06:45:41;;;;;;;6.13;5.93;;;9.50;99.90;;;;;;4978590;28;20060;-77
2021/05/25 06:48:08;;;;;;;6.43;6.13;;;9.50;99.90;;;;;;4961149;28;20042;-77
2021/05/25 06:50:36;;;;;;;6.70;6.40;;;9.80;99.90;;;;;;4973770;28;20355;-78
2021/05/25 06:53:04;;;;;;;6.53;6.22;;;10.00;99.90;;;;;;4990805;28;20423;-77
2021/05/25 06:55:35;;;;;;;6.28;6.07;;;9.80;99.90;;;;;;4989453;28;20042;-77
2021/05/25 06:58:01;;;;;;;5.57;5.20;;;9.90;99.90;;;;;;4978230;28;20132;-77
2021/05/25 07:00:28;;;;;;;4.95;4.70;;;9.70;99.90;;;;;;4992427;28;20201;-78
2021/05/25 07:02:57;;;;;;;5.05;4.72;;;9.70;99.90;;;;;;4958099;28;20100;-78
2021/05/25 07:05:24;;;;;;;5.47;5.07;;;9.60;99.90;;;;;;4993685;28;20084;-77
2021/05/25 07:07:51;;;;;;;5.45;5.07;;;9.40;99.90;;;;;;4957869;28;20066;-77
2021/05/25 07:10:18;;;;;;;4.60;4.40;;;9.10;99.90;;;;;;4971805;28;20046;-77
2021/05/25 07:12:45;;;;;;;5.28;4.82;;;9.10;99.90;;;;;;5001215;28;20053;-77
2021/05/25 07:15:12;;;;;;;5.20;5.00;;;9.00;99.90;;;;;;5006915;28;20037;-77
2021/05/25 07:17:47;;;;;;;6.13;5.82;;;9.00;99.90;;;;;;4987747;28;20349;-76
2021/05/25 07:20:15;;;;;;;5.63;5.43;;;9.10;99.90;;;;;;4976084;28;20057;-76
2021/05/25 07:22:41;;;;;;;6.95;6.40;;;9.10;99.90;;;;;;5006756;28;20048;-76
2021/05/25 07:25:09;;;;;;;7.93;7.53;;;9.00;99.90;;;;;;4991716;28;20494;-77
2021/05/25 07:27:36;;;;;;;7.80;7.50;;;9.00;99.90;;;;;;4995406;28;20055;-77
2021/05/25 07:30:06;;;;;;;7.25;6.95;;;9.20;99.90;;;;;;4990379;28;20050;-78
2021/05/25 07:32:33;;;;;;;8.10;7.60;;;9.30;99.90;;;;;;4990954;28;20069;-77
2021/05/25 07:35:00;;;;;;;7.10;6.80;;;9.40;99.90;;;;;;4964104;28;20050;-77
2021/05/25 07:37:27;;;;;;;7.82;7.45;;;9.40;99.90;;;;;;4997755;28;20521;-77
2021/05/25 07:39:54;;;;;;;7.97;7.68;;;9.50;99.90;;;;;;4993421;28;20058;-78
2021/05/25 07:42:21;;;;;;;7.43;7.18;;;9.60;99.90;;;;;;4951397;28;20051;-77
2021/05/25 07:44:47;;;;;;;7.78;7.47;;;9.40;99.90;;;;;;4967078;28;20046;-77
2021/05/25 07:47:14;;;;;;;7.72;7.53;;;9.30;99.90;;;;;;4978530;28;20081;-77
2021/05/25 07:49:41;;;;;;;7.15;6.85;;;9.20;99.90;;;;;;4989324;28;20327;-77
2021/05/25 07:52:08;;;;;;;6.85;6.55;;;9.20;99.90;;;;;;4956412;28;20096;-77
2021/05/25 07:54:35;;;;;;;7.60;7.30;;;9.30;99.90;;;;;;4973283;28;20054;-78
2021/05/25 07:57:02;;;;;;;6.35;6.15;;;9.30;99.90;;;;;;4956812;28;20047;-77
2021/05/25 07:59:29;;;;;;;6.90;6.60;;;9.30;99.90;;;;;;4956959;28;20050;-77
2021/05/25 08:01:56;;;;;;;7.07;6.68;;;9.20;99.90;;;;;;4953791;28;20072;-77
2021/05/25 08:04:23;;;;;;;7.40;7.15;;;9.20;99.90;;;;;;4954476;28;20142;-77
2021/05/25 08:06:55;;;;;;;7.32;7.05;;;9.20;99.90;;;;;;4938648;28;20074;-77
2021/05/25 08:09:22;;;;;;;7.47;7.18;;;9.30;99.90;;;;;;4962461;28;20110;-77
2021/05/25 08:11:49;;;;;;;8.25;7.75;;;9.30;99.90;;;;;;4971015;28;20042;-77
2021/05/25 08:14:16;;;;;;;8.60;8.10;;;9.40;99.90;;;;;;4978718;28;20065;-77
2021/05/25 08:16:44;;;;;;;8.50;8.10;;;9.50;99.90;;;;;;5001318;28;20045;-76
2021/05/25 08:19:26;;;;;;;7.28;6.97;;;9.60;99.90;;;;;;4941247;28;20035;-77
2021/05/25 08:21:54;;;;;;;7.15;6.85;;;9.70;99.90;;;;;;4955515;28;20066;-77
2021/05/25 08:24:42;;;;;;;7.75;7.25;;;9.90;99.90;;;;;;4960045;28;20059;-77
2021/05/25 08:27:09;;;;;;;7.90;7.60;;;9.90;99.90;;;;;;4972645;28;20042;-78
2021/05/25 08:29:52;;;;;;;7.80;7.50;;;10.10;99.90;;;;;;4959976;28;20049;-77
2021/05/25 08:32:18;;;;;;;9.25;8.80;;;10.40;99.90;;;;;;4990024;28;20042;-77
2021/05/25 08:34:45;;;;;;;8.70;8.30;;;10.50;99.90;;;;;;4974993;28;20047;-77
2021/05/25 08:37:12;;;;;;;9.65;9.05;;;10.50;99.90;;;;;;4975017;28;20550;-76
2021/05/25 08:39:39;;;;;;;9.68;9.07;;;10.60;99.90;;;;;;4974751;28;20148;-76
2021/05/25 08:42:25;;;;;;;8.00;7.50;;;10.50;99.90;;;;;;4976668;28;20061;-77
2021/05/25 08:44:52;;;;;;;7.85;7.45;;;10.50;99.90;;;;;;4994508;28;20042;-76
2021/05/25 08:47:20;;;;;;;6.40;6.13;;;10.40;99.90;;;;;;4992817;28;20060;-77
2021/05/25 08:49:47;;;;;;;6.53;6.03;;;9.70;99.90;;;;;;4961035;28;20202;-77
2021/05/25 08:52:15;;;;;;;3.63;3.28;;;9.30;99.90;;;;;;5003355;28;20744;-76
2021/05/25 08:54:43;;;;;;;4.93;4.53;;;9.10;99.90;;;;;;4994082;28;20443;-76
2021/05/25 08:57:14;;;;;;;2.63;2.40;;;8.90;99.90;;;;;;4989738;28;20054;-76
2021/05/25 08:59:41;;;;;;;2.63;2.42;;;9.00;99.90;;;;;;4974465;28;20511;-76
2021/05/25 09:02:13;;;;;;;2.60;2.40;;;9.00;99.90;;;;;;4974342;28;20142;-76
2021/05/25 09:05:06;;;;;;;2.40;2.30;;;9.10;99.90;;;;;;4990557;28;20467;-76
2021/05/25 09:07:41;;;;;;;2.30;2.10;;;9.10;99.90;;;;;;4986526;28;20103;-77
2021/05/25 09:10:39;;;;;;;3.85;3.70;;;9.30;99.90;;;;;;5010194;28;20058;-77
2021/05/25 09:13:20;;;;;;;3.63;3.42;;;9.30;99.90;;;;;;4983576;28;20053;-77
2021/05/25 09:15:49;;;;;;;2.30;2.05;;;9.20;99.90;;;;;;4985435;28;20577;-77
2021/05/25 09:18:18;;;;;;;2.33;2.17;;;9.20;99.90;;;;;;4991461;28;20411;-77
2021/05/25 09:20:53;;;;;;;2.15;2.00;;;9.20;99.90;;;;;;4975258;28;20045;-77
2021/05/25 09:23:43;;;;;;;2.53;2.05;;;9.30;99.90;;;;;;4962838;28;20097;-77
2021/05/25 09:26:19;;;;;;;2.40;2.20;;;9.50;99.90;;;;;;4979779;28;20046;-77
2021/05/25 09:29:02;;;;;;;2.47;2.35;;;9.30;99.90;;;;;;4971886;28;20042;-77
2021/05/25 09:31:35;;;;;;;13.80;12.60;;;9.50;99.90;;;;;;4960256;28;20046;-77
2021/05/25 09:34:23;;;;;;;6.40;5.18;;;9.70;99.90;;;;;;4958716;28;20112;-77
2021/05/25 09:37:05;;;;;;;5.72;3.08;;;9.90;99.90;;;;;;4973908;28;20069;-77
2021/05/25 09:39:35;;;;;;;2.78;2.67;;;10.30;99.90;;;;;;4972958;28;20057;-77
2021/05/25 09:42:05;;;;;;;3.63;3.53;;;10.50;99.90;;;;;;4956709;28;20392;-77
2021/05/25 09:44:34;;;;;;;4.68;4.47;;;10.80;99.90;;;;;;4974276;28;20071;-77
2021/05/25 09:47:02;;;;;;;6.30;6.00;;;11.00;99.90;;;;;;4999950;28;20122;-77
2021/05/25 09:49:29;;;;;;;4.82;4.53;;;11.30;99.90;;;;;;4993268;28;20419;-77
2021/05/25 09:52:09;;;;;;;7.03;6.72;;;11.90;99.90;;;;;;5008978;28;20136;-77
2021/05/25 09:54:36;;;;;;;7.90;7.50;;;12.20;99.90;;;;;;4991933;28;20068;-76
2021/05/25 09:57:06;;;;;;;8.32;8.02;;;12.10;99.90;;;;;;4986459;28;20049;-76
2021/05/25 09:59:34;;;;;;;7.88;7.57;;;12.00;99.90;;;;;;4991777;28;20100;-77
2021/05/25 10:02:28;;;;;;;8.38;8.07;;;12.10;99.90;;;;;;4971609;28;20045;-77
2021/05/25 10:05:09;;;;;;;8.73;8.43;;;12.10;99.90;;;;;;4976495;28;20056;-76
2021/05/25 10:07:37;;;;;;;6.47;6.18;;;11.60;99.90;;;;;;4991161;28;20056;-76
2021/05/25 10:10:06;;;;;;;7.78;7.47;;;11.20;99.90;;;;;;4972558;28;21023;-77
2021/05/25 10:12:33;;;;;;;5.10;4.60;;;10.70;99.90;;;;;;4972353;28;20685;-77
2021/05/25 10:15:00;;;;;;;3.00;2.90;;;9.90;99.90;;;;;;4960608;28;20038;-76
2021/05/25 10:20:05;;;;;;;3.65;3.10;;;9.30;99.90;;;;;;4969986;28;20527;-76
2021/05/25 10:22:33;;;;;;;4.38;4.05;;;9.40;99.90;;;;;;4989217;28;20050;-77
2021/05/25 10:25:01;;;;;;;2.55;2.35;;;9.80;99.90;;;;;;4972950;28;20492;-76
2021/05/25 10:27:29;;;;;;;5.32;4.93;;;10.60;99.90;;;;;;4969767;28;20428;-76
2021/05/25 10:29:56;;;;;;;4.45;3.88;;;11.20;99.90;;;;;;4973005;28;20492;-76
2021/05/25 10:32:25;;;;;;;4.43;4.15;;;11.50;99.90;;;;;;4970282;28;20053;-76
2021/05/25 10:34:54;;;;;;;4.45;4.05;;;11.30;99.90;;;;;;4973611;28;20090;-76
2021/05/25 10:37:22;;;;;;;3.30;3.10;;;10.70;99.90;;;;;;4982755;28;20045;-76
2021/05/25 10:39:54;;;;;;;2.30;2.10;;;10.20;99.90;;;;;;4995293;28;20062;-77
2021/05/25 10:42:27;;;;;;;2.72;2.20;;;10.00;99.90;;;;;;4994958;28;20045;-76
2021/05/25 10:45:11;;;;;;;2.80;2.70;;;9.80;99.90;;;;;;4976818;28;20038;-76
2021/05/25 10:47:50;;;;;;;4.10;3.83;;;9.70;99.90;;;;;;4996598;28;20169;-77
2021/05/25 10:52:53;;;;;;;3.95;3.00;;;10.30;99.90;;;;;;4972549;28;20081;-77
2021/05/25 10:55:32;;;;;;;3.05;2.85;;;10.70;99.90;;;;;;4988145;28;20052;-77
2021/05/25 10:58:00;;;;;;;3.33;3.13;;;10.40;99.90;;;;;;4989702;28;20046;-77
2021/05/25 11:00:41;;;;;;;3.38;3.08;;;9.90;99.90;;;;;;4994093;28;20056;-76
2021/05/25 11:03:11;;;;;;;5.15;4.28;;;9.20;99.90;;;;;;4976308;28;20209;-76
2021/05/25 11:05:46;;;;;;;6.15;5.13;;;8.80;99.90;;;;;;4992875;28;20683;-76
2021/05/25 11:08:13;;;;;;;;;;;8.80;99.90;;;;;;4960348;28;20150;-77
2021/05/25 11:10:59;;;;;;;5.70;5.20;;;9.50;99.90;;;;;;4965167;28;19921;-77
2021/05/25 11:13:29;;;;;;;5.72;5.22;;;9.80;99.90;;;;;;4967833;28;20069;-75
2021/05/25 11:16:24;;;;;;;6.45;5.85;;;10.10;99.90;;;;;;4975655;28;20209;-76
2021/05/25 11:19:03;;;;;;;8.07;7.28;;;10.30;99.90;;;;;;4999298;28;20060;-75
2021/05/25 11:24:32;;;;;;;10.35;8.32;;;10.70;99.90;;;;;;4956337;28;20038;-76
2021/05/25 11:27:10;;;;;;;10.85;9.68;;;10.60;99.90;;;;;;4977697;28;20046;-76
2021/05/25 11:29:40;;;;;;;11.88;10.70;;;10.60;99.90;;;;;;4978171;28;20054;-76
2021/05/25 11:32:13;;;;;;;11.30;10.07;;;10.40;99.90;;;;;;5007093;28;20080;-76
2021/05/25 11:34:41;;;;;;;12.52;11.10;;;10.40;99.90;;;;;;4975714;28;20112;-76
2021/05/25 11:37:10;;;;;;;11.93;10.73;;;10.30;99.90;;;;;;4974944;28;20078;-76
2021/05/25 11:39:38;;;;;;;12.10;10.90;;;10.50;99.90;;;;;;4973723;28;20046;-76
2021/05/25 11:42:07;;;;;;;13.15;11.85;;;10.50;99.90;;;;;;4975032;28;20107;-76
2021/05/25 11:44:41;;;;;;;11.95;10.48;;;10.50;99.90;;;;;;4995574;28;20079;-76
2021/05/25 11:47:08;;;;;;;13.57;12.15;;;10.50;99.90;;;;;;4986658;28;20132;-76
2021/05/25 11:49:45;;;;;;;11.77;10.77;;;10.70;99.90;;;;;;4994251;28;20404;-76
2021/05/25 11:52:29;;;;;;;12.05;10.95;;;10.60;99.90;;;;;;4978886;28;20611;-77
2021/05/25 11:55:00;;;;;;;10.60;9.60;;;10.40;99.90;;;;;;4956295;28;20420;-77
2021/05/25 11:57:39;;;;;;;7.93;7.07;;;10.20;99.90;;;;;;4960835;28;20168;-77
2021/05/25 12:00:07;;;;;;;7.28;6.57;;;9.90;99.90;;;;;;4985597;28;20518;-77
2021/05/25 12:02:42;;;;;;;;;;;9.80;99.90;;;;;;4959609;28;20062;-78
2021/05/25 12:05:15;;;;;;;13.65;8.82;;;9.80;99.90;;;;;;4975074;28;19921;-77
2021/05/25 12:07:45;;;;;;;8.95;8.15;;;9.90;99.90;;;;;;4958593;28;20057;-76
2021/05/25 12:10:18;;;;;;;10.18;9.38;;;10.00;99.90;;;;;;5008161;28;20056;-75
2021/05/25 12:12:46;;;;;;;10.35;9.38;;;10.20;99.90;;;;;;4991042;28;20050;-74
2021/05/25 12:15:16;;;;;;;11.00;10.15;;;10.70;99.90;;;;;;4966390;28;20049;-74
2021/05/25 12:17:45;;;;;;;10.75;9.85;;;11.10;99.90;;;;;;4988797;28;20053;-75
2021/05/25 12:20:19;;;;;;;10.60;8.93;;;11.30;99.90;;;;;;5009641;28;20749;-76
2021/05/25 12:22:54;;;;;;;10.85;9.80;;;11.80;99.90;;;;;;4996721;28;20126;-75
2021/05/25 12:25:20;;;;;;;8.87;8.17;;;12.50;99.90;;;;;;5011468;28;20079;-76
2021/05/25 12:27:50;;;;;;;9.13;8.40;;;12.80;99.90;;;;;;4963792;28;20364;-75
2021/05/25 12:30:18;;;;;;;9.02;8.25;;;12.70;99.90;;;;;;4979986;28;20081;-75
2021/05/25 12:32:46;;;;;;;13.88;9.48;;;12.60;99.90;;;;;;4990931;28;20228;-76
2021/05/25 12:35:15;;;;;;;11.20;10.15;;;12.70;99.90;;;;;;4974251;28;20050;-76
2021/05/25 12:37:42;;;;;;;10.05;9.25;;;12.50;99.90;;;;;;4973769;28;20046;-75
2021/05/25 12:40:12;;;;;;;10.30;9.07;;;12.50;99.90;;;;;;4974728;28;20057;-75
2021/05/25 12:42:42;;;;;;;10.88;10.07;;;12.40;99.90;;;;;;4973342;28;20061;-76
2021/05/25 12:45:14;;;;;;;12.05;11.13;;;12.40;99.90;;;;;;4976525;28;20050;-75
2021/05/25 12:48:00;;;;;;;10.52;9.55;;;12.50;99.90;;;;;;4995003;28;20129;-77
2021/05/25 12:50:40;;;;;;;8.82;8.07;;;12.70;99.90;;;;;;4989635;28;20046;-77
2021/05/25 12:53:19;;;;;;;7.05;6.40;;;12.10;99.90;;;;;;4973505;28;20042;-76
2021/05/25 12:55:52;;;;;;;8.18;7.22;;;10.50;99.90;;;;;;4957027;28;20050;-77
2021/05/25 12:58:43;;;;;;;7.55;6.13;;;9.50;99.90;;;;;;4984712;28;20558;-76
2021/05/25 13:01:17;;;;;;;7.55;6.00;;;9.10;99.90;;;;;;4972531;28;20046;-77
2021/05/25 13:03:44;;;;;;;12.20;7.45;;;8.70;99.90;;;;;;4991910;28;20073;-77
2021/05/25 13:06:17;;;;;;;6.13;5.60;;;8.60;99.90;;;;;;4975711;28;20669;-77
2021/05/25 13:08:48;;;;;;;10.32;7.90;;;8.50;99.90;;;;;;4973738;28;20041;-77
2021/05/25 13:11:15;;;;;;;11.02;7.90;;;8.50;99.90;;;;;;4957066;28;20137;-75
2021/05/25 13:13:47;;;;;;;9.43;7.68;;;8.40;99.90;;;;;;4973002;28;20042;-78
2021/05/25 13:16:23;;;;;;;7.90;6.93;;;8.40;99.90;;;;;;4963026;28;20049;-77